sensor_id;sensor_type;location;lat;lon;timestamp;P1;durP1;ratioP1;P2;durP2;ratioP2
43048;SDS011;28673;44.412;11.918;2024-01-06T00:01:41;11.88;;;8.25;;
43048;SDS011;28673;44.412;11.918;2024-01-06T00:04:07;20.48;;;10.25;;
43048;SDS011;28673;44.412;11.918;2024-01-06T00:06:32;24.25;;;10.52;;
43048;SDS011;28673;44.412;11.918;2024-01-06T00:08:58;15.32;;;9.32;;
43048;SDS011;28673;44.412;11.918;2024-01-06T00:11:24;26.50;;;11.77;;
43048;SDS011;28673;44.412;11.918;2024-01-06T00:13:50;18.38;;;11.68;;
43048;SDS011;28673;44.412;11.918;2024-01-06T00:16:16;15.55;;;9.80;;
43048;SDS011;28673;44.412;11.918;2024-01-06T00:18:44;19.92;;;10.45;;
43048;SDS011;28673;44.412;11.918;2024-01-06T00:21:10;22.95;;;11.48;;
43048;SDS011;28673;44.412;11.918;2024-01-06T00:23:36;24.30;;;11.25;;
43048;SDS011;28673;44.412;11.918;2024-01-06T00:26:02;41.85;;;18.70;;
43048;SDS011;28673;44.412;11.918;2024-01-06T00:28:28;48.50;;;22.65;;
43048;SDS011;28673;44.412;11.918;2024-01-06T00:30:55;52.65;;;23.70;;
43048;SDS011;28673;44.412;11.918;2024-01-06T00:33:21;59.00;;;27.08;;
43048;SDS011;28673;44.412;11.918;2024-01-06T00:35:46;56.28;;;26.45;;
43048;SDS011;28673;44.412;11.918;2024-01-06T00:38:12;46.83;;;24.55;;
43048;SDS011;28673;44.412;11.918;2024-01-06T00:40:38;49.40;;;25.45;;
43048;SDS011;28673;44.412;11.918;2024-01-06T00:43:04;41.63;;;24.17;;
43048;SDS011;28673;44.412;11.918;2024-01-06T00:45:30;54.45;;;24.60;;
43048;SDS011;28673;44.412;11.918;2024-01-06T00:47:56;45.42;;;24.20;;
43048;SDS011;28673;44.412;11.918;2024-01-06T00:50:22;50.13;;;25.52;;
43048;SDS011;28673;44.412;11.918;2024-01-06T00:52:48;50.20;;;23.42;;
43048;SDS011;28673;44.412;11.918;2024-01-06T00:55:18;41.60;;;22.60;;
43048;SDS011;28673;44.412;11.918;2024-01-06T00:57:47;32.30;;;18.67;;
43048;SDS011;28673;44.412;11.918;2024-01-06T01:00:13;31.42;;;18.85;;
43048;SDS011;28673;44.412;11.918;2024-01-06T01:02:39;29.05;;;17.63;;
43048;SDS011;28673;44.412;11.918;2024-01-06T01:05:05;26.83;;;16.70;;
43048;SDS011;28673;44.412;11.918;2024-01-06T01:07:35;23.90;;;14.32;;
43048;SDS011;28673;44.412;11.918;2024-01-06T01:10:01;24.58;;;13.77;;
43048;SDS011;28673;44.412;11.918;2024-01-06T01:12:27;22.15;;;14.23;;
43048;SDS011;28673;44.412;11.918;2024-01-06T01:14:53;23.00;;;13.25;;
43048;SDS011;28673;44.412;11.918;2024-01-06T01:17:19;24.88;;;13.27;;
43048;SDS011;28673;44.412;11.918;2024-01-06T01:19:45;19.20;;;12.75;;
43048;SDS011;28673;44.412;11.918;2024-01-06T01:22:11;20.15;;;11.48;;
43048;SDS011;28673;44.412;11.918;2024-01-06T01:24:37;16.75;;;11.23;;
43048;SDS011;28673;44.412;11.918;2024-01-06T01:27:03;16.40;;;11.85;;
43048;SDS011;28673;44.412;11.918;2024-01-06T01:29:29;16.48;;;11.43;;
43048;SDS011;28673;44.412;11.918;2024-01-06T01:31:55;20.67;;;12.10;;
43048;SDS011;28673;44.412;11.918;2024-01-06T01:34:21;18.42;;;11.63;;
43048;SDS011;28673;44.412;11.918;2024-01-06T01:36:46;25.58;;;12.77;;
43048;SDS011;28673;44.412;11.918;2024-01-06T01:39:12;17.55;;;11.95;;
43048;SDS011;28673;44.412;11.918;2024-01-06T01:41:39;15.43;;;11.32;;
43048;SDS011;28673;44.412;11.918;2024-01-06T01:44:05;17.33;;;12.13;;
43048;SDS011;28673;44.412;11.918;2024-01-06T01:46:31;17.52;;;11.50;;
43048;SDS011;28673;44.412;11.918;2024-01-06T01:48:58;19.17;;;11.18;;
43048;SDS011;28673;44.412;11.918;2024-01-06T01:51:27;18.35;;;11.40;;
43048;SDS011;28673;44.412;11.918;2024-01-06T01:53:54;17.48;;;11.63;;
43048;SDS011;28673;44.412;11.918;2024-01-06T01:56:22;17.08;;;11.98;;
43048;SDS011;28673;44.412;11.918;2024-01-06T01:58:48;16.17;;;10.93;;
43048;SDS011;28673;44.412;11.918;2024-01-06T02:01:14;14.18;;;10.75;;
43048;SDS011;28673;44.412;11.918;2024-01-06T02:03:41;15.80;;;10.75;;
43048;SDS011;28673;44.412;11.918;2024-01-06T02:06:10;16.33;;;11.10;;
43048;SDS011;28673;44.412;11.918;2024-01-06T02:08:36;13.80;;;10.05;;
43048;SDS011;28673;44.412;11.918;2024-01-06T02:11:03;12.98;;;10.00;;
43048;SDS011;28673;44.412;11.918;2024-01-06T02:13:32;14.27;;;11.10;;
43048;SDS011;28673;44.412;11.918;2024-01-06T02:16:00;14.68;;;10.48;;
43048;SDS011;28673;44.412;11.918;2024-01-06T02:18:27;15.40;;;11.15;;
43048;SDS011;28673;44.412;11.918;2024-01-06T02:20:53;13.95;;;10.55;;
43048;SDS011;28673;44.412;11.918;2024-01-06T02:23:23;13.43;;;9.45;;
43048;SDS011;28673;44.412;11.918;2024-01-06T02:25:49;14.88;;;10.57;;
43048;SDS011;28673;44.412;11.918;2024-01-06T02:28:14;16.63;;;10.88;;
43048;SDS011;28673;44.412;11.918;2024-01-06T02:30:40;13.45;;;10.10;;
43048;SDS011;28673;44.412;11.918;2024-01-06T02:33:06;13.27;;;9.88;;
43048;SDS011;28673;44.412;11.918;2024-01-06T02:35:32;14.75;;;10.55;;
43048;SDS011;28673;44.412;11.918;2024-01-06T02:37:57;21.13;;;11.30;;
43048;SDS011;28673;44.412;11.918;2024-01-06T02:40:23;16.65;;;10.40;;
43048;SDS011;28673;44.412;11.918;2024-01-06T02:42:49;20.15;;;11.73;;
43048;SDS011;28673;44.412;11.918;2024-01-06T02:45:15;16.73;;;10.80;;
43048;SDS011;28673;44.412;11.918;2024-01-06T02:47:41;14.63;;;10.88;;
43048;SDS011;28673;44.412;11.918;2024-01-06T02:50:06;16.48;;;10.40;;
43048;SDS011;28673;44.412;11.918;2024-01-06T02:52:33;17.45;;;10.75;;
43048;SDS011;28673;44.412;11.918;2024-01-06T02:54:58;19.83;;;11.13;;
43048;SDS011;28673;44.412;11.918;2024-01-06T02:57:25;15.15;;;10.65;;
43048;SDS011;28673;44.412;11.918;2024-01-06T02:59:52;17.60;;;10.32;;
43048;SDS011;28673;44.412;11.918;2024-01-06T03:02:18;19.92;;;11.90;;
43048;SDS011;28673;44.412;11.918;2024-01-06T03:04:44;17.10;;;10.98;;
43048;SDS011;28673;44.412;11.918;2024-01-06T03:07:10;22.42;;;11.80;;
43048;SDS011;28673;44.412;11.918;2024-01-06T03:09:35;18.77;;;12.25;;
43048;SDS011;28673;44.412;11.918;2024-01-06T03:12:01;17.75;;;12.52;;
43048;SDS011;28673;44.412;11.918;2024-01-06T03:14:27;18.95;;;11.40;;
43048;SDS011;28673;44.412;11.918;2024-01-06T03:16:53;22.48;;;11.82;;
43048;SDS011;28673;44.412;11.918;2024-01-06T03:19:19;22.90;;;11.57;;
43048;SDS011;28673;44.412;11.918;2024-01-06T03:21:45;26.52;;;12.35;;
43048;SDS011;28673;44.412;11.918;2024-01-06T03:24:10;22.02;;;11.57;;
43048;SDS011;28673;44.412;11.918;2024-01-06T03:26:36;20.55;;;11.52;;
43048;SDS011;28673;44.412;11.918;2024-01-06T03:29:02;18.02;;;11.05;;
43048;SDS011;28673;44.412;11.918;2024-01-06T03:31:29;20.48;;;11.32;;
43048;SDS011;28673;44.412;11.918;2024-01-06T03:33:55;20.02;;;11.38;;
43048;SDS011;28673;44.412;11.918;2024-01-06T03:36:21;26.10;;;12.95;;
43048;SDS011;28673;44.412;11.918;2024-01-06T03:38:47;21.70;;;12.20;;
43048;SDS011;28673;44.412;11.918;2024-01-06T03:41:13;22.45;;;12.07;;
43048;SDS011;28673;44.412;11.918;2024-01-06T03:43:38;18.55;;;11.68;;
43048;SDS011;28673;44.412;11.918;2024-01-06T03:46:04;23.88;;;12.38;;
43048;SDS011;28673;44.412;11.918;2024-01-06T03:48:30;28.88;;;12.60;;
43048;SDS011;28673;44.412;11.918;2024-01-06T03:50:57;24.35;;;12.13;;
43048;SDS011;28673;44.412;11.918;2024-01-06T03:53:28;25.45;;;13.32;;
43048;SDS011;28673;44.412;11.918;2024-01-06T03:55:54;25.67;;;12.50;;
43048;SDS011;28673;44.412;11.918;2024-01-06T03:58:20;22.52;;;11.20;;
43048;SDS011;28673;44.412;11.918;2024-01-06T04:00:45;23.73;;;12.13;;
43048;SDS011;28673;44.412;11.918;2024-01-06T04:03:11;22.30;;;11.77;;
43048;SDS011;28673;44.412;11.918;2024-01-06T04:05:37;19.38;;;11.98;;
43048;SDS011;28673;44.412;11.918;2024-01-06T04:08:03;25.25;;;12.02;;
43048;SDS011;28673;44.412;11.918;2024-01-06T04:10:29;33.70;;;11.48;;
43048;SDS011;28673;44.412;11.918;2024-01-06T04:12:55;24.58;;;12.32;;
43048;SDS011;28673;44.412;11.918;2024-01-06T04:15:20;22.33;;;10.88;;
43048;SDS011;28673;44.412;11.918;2024-01-06T04:17:48;26.00;;;12.35;;
43048;SDS011;28673;44.412;11.918;2024-01-06T04:20:14;29.30;;;11.48;;
43048;SDS011;28673;44.412;11.918;2024-01-06T04:22:40;26.52;;;11.38;;
43048;SDS011;28673;44.412;11.918;2024-01-06T04:25:06;27.83;;;11.90;;
43048;SDS011;28673;44.412;11.918;2024-01-06T04:27:32;30.83;;;12.90;;
43048;SDS011;28673;44.412;11.918;2024-01-06T04:29:59;25.38;;;12.23;;
43048;SDS011;28673;44.412;11.918;2024-01-06T04:32:25;30.00;;;12.25;;
43048;SDS011;28673;44.412;11.918;2024-01-06T04:34:50;26.48;;;11.02;;
43048;SDS011;28673;44.412;11.918;2024-01-06T04:37:16;26.15;;;11.00;;
43048;SDS011;28673;44.412;11.918;2024-01-06T04:39:42;23.83;;;11.95;;
43048;SDS011;28673;44.412;11.918;2024-01-06T04:42:11;32.92;;;11.52;;
43048;SDS011;28673;44.412;11.918;2024-01-06T04:44:36;30.25;;;12.65;;
43048;SDS011;28673;44.412;11.918;2024-01-06T04:47:02;27.92;;;12.98;;
43048;SDS011;28673;44.412;11.918;2024-01-06T04:49:31;25.73;;;11.30;;
43048;SDS011;28673;44.412;11.918;2024-01-06T04:51:57;30.05;;;12.05;;
43048;SDS011;28673;44.412;11.918;2024-01-06T04:54:23;29.23;;;12.57;;
43048;SDS011;28673;44.412;11.918;2024-01-06T04:56:48;27.45;;;12.50;;
43048;SDS011;28673;44.412;11.918;2024-01-06T04:59:14;28.83;;;12.43;;
43048;SDS011;28673;44.412;11.918;2024-01-06T05:01:40;28.80;;;12.02;;
43048;SDS011;28673;44.412;11.918;2024-01-06T05:04:06;29.33;;;11.38;;
43048;SDS011;28673;44.412;11.918;2024-01-06T05:06:31;23.45;;;11.23;;
43048;SDS011;28673;44.412;11.918;2024-01-06T05:08:57;21.95;;;10.75;;
43048;SDS011;28673;44.412;11.918;2024-01-06T05:11:23;24.35;;;10.90;;
43048;SDS011;28673;44.412;11.918;2024-01-06T05:13:49;28.08;;;11.50;;
43048;SDS011;28673;44.412;11.918;2024-01-06T05:16:14;33.78;;;11.43;;
43048;SDS011;28673;44.412;11.918;2024-01-06T05:18:40;30.08;;;13.10;;
43048;SDS011;28673;44.412;11.918;2024-01-06T05:21:06;23.63;;;10.65;;
43048;SDS011;28673;44.412;11.918;2024-01-06T05:23:32;20.33;;;11.13;;
43048;SDS011;28673;44.412;11.918;2024-01-06T05:25:58;25.38;;;11.85;;
43048;SDS011;28673;44.412;11.918;2024-01-06T05:28:24;28.13;;;11.45;;
43048;SDS011;28673;44.412;11.918;2024-01-06T05:30:50;20.63;;;12.45;;
43048;SDS011;28673;44.412;11.918;2024-01-06T05:33:16;18.20;;;9.82;;
43048;SDS011;28673;44.412;11.918;2024-01-06T05:35:41;17.40;;;10.05;;
43048;SDS011;28673;44.412;11.918;2024-01-06T05:38:07;21.02;;;10.25;;
43048;SDS011;28673;44.412;11.918;2024-01-06T05:40:33;20.00;;;10.23;;
43048;SDS011;28673;44.412;11.918;2024-01-06T05:42:59;15.90;;;10.05;;
43048;SDS011;28673;44.412;11.918;2024-01-06T05:45:25;22.48;;;10.38;;
43048;SDS011;28673;44.412;11.918;2024-01-06T05:47:53;19.08;;;9.13;;
43048;SDS011;28673;44.412;11.918;2024-01-06T05:50:19;17.92;;;9.90;;
43048;SDS011;28673;44.412;11.918;2024-01-06T05:52:45;13.65;;;8.95;;
43048;SDS011;28673;44.412;11.918;2024-01-06T05:55:13;15.32;;;8.68;;
43048;SDS011;28673;44.412;11.918;2024-01-06T05:57:39;15.43;;;9.65;;
43048;SDS011;28673;44.412;11.918;2024-01-06T06:00:07;14.57;;;8.63;;
43048;SDS011;28673;44.412;11.918;2024-01-06T06:02:38;13.95;;;8.90;;
43048;SDS011;28673;44.412;11.918;2024-01-06T06:05:04;13.98;;;9.95;;
43048;SDS011;28673;44.412;11.918;2024-01-06T06:07:30;12.57;;;8.13;;
43048;SDS011;28673;44.412;11.918;2024-01-06T06:09:56;14.93;;;9.05;;
43048;SDS011;28673;44.412;11.918;2024-01-06T06:12:22;13.07;;;8.05;;
43048;SDS011;28673;44.412;11.918;2024-01-06T06:14:48;13.90;;;8.05;;
43048;SDS011;28673;44.412;11.918;2024-01-06T06:17:16;9.40;;;7.80;;
43048;SDS011;28673;44.412;11.918;2024-01-06T06:19:42;12.52;;;7.65;;
43048;SDS011;28673;44.412;11.918;2024-01-06T06:22:08;12.23;;;7.78;;
43048;SDS011;28673;44.412;11.918;2024-01-06T06:24:34;10.65;;;7.60;;
43048;SDS011;28673;44.412;11.918;2024-01-06T06:27:00;13.40;;;8.10;;
43048;SDS011;28673;44.412;11.918;2024-01-06T06:29:26;10.55;;;8.13;;
43048;SDS011;28673;44.412;11.918;2024-01-06T06:31:51;15.30;;;8.93;;
43048;SDS011;28673;44.412;11.918;2024-01-06T06:34:17;11.70;;;8.05;;
43048;SDS011;28673;44.412;11.918;2024-01-06T06:36:44;14.95;;;7.93;;
43048;SDS011;28673;44.412;11.918;2024-01-06T06:39:11;8.98;;;6.65;;
43048;SDS011;28673;44.412;11.918;2024-01-06T06:41:37;10.38;;;7.78;;
43048;SDS011;28673;44.412;11.918;2024-01-06T06:44:02;13.45;;;7.22;;
43048;SDS011;28673;44.412;11.918;2024-01-06T06:46:29;12.15;;;7.07;;
43048;SDS011;28673;44.412;11.918;2024-01-06T06:48:55;9.35;;;6.38;;
43048;SDS011;28673;44.412;11.918;2024-01-06T06:51:21;8.43;;;6.32;;
43048;SDS011;28673;44.412;11.918;2024-01-06T06:53:50;13.45;;;7.07;;
43048;SDS011;28673;44.412;11.918;2024-01-06T06:56:16;13.10;;;7.13;;
43048;SDS011;28673;44.412;11.918;2024-01-06T06:58:42;10.02;;;7.00;;
43048;SDS011;28673;44.412;11.918;2024-01-06T07:01:08;8.68;;;6.55;;
43048;SDS011;28673;44.412;11.918;2024-01-06T07:03:34;10.27;;;7.38;;
43048;SDS011;28673;44.412;11.918;2024-01-06T07:05:59;9.65;;;6.85;;
43048;SDS011;28673;44.412;11.918;2024-01-06T07:08:25;10.23;;;8.00;;
43048;SDS011;28673;44.412;11.918;2024-01-06T07:10:51;9.75;;;7.30;;
43048;SDS011;28673;44.412;11.918;2024-01-06T07:13:17;10.77;;;6.88;;
43048;SDS011;28673;44.412;11.918;2024-01-06T07:15:42;8.40;;;6.68;;
43048;SDS011;28673;44.412;11.918;2024-01-06T07:18:10;9.10;;;6.38;;
43048;SDS011;28673;44.412;11.918;2024-01-06T07:20:36;12.20;;;7.50;;
43048;SDS011;28673;44.412;11.918;2024-01-06T07:23:02;10.88;;;6.63;;
43048;SDS011;28673;44.412;11.918;2024-01-06T07:25:28;12.13;;;7.45;;
43048;SDS011;28673;44.412;11.918;2024-01-06T07:27:55;10.35;;;7.30;;
43048;SDS011;28673;44.412;11.918;2024-01-06T07:30:21;11.98;;;6.90;;
43048;SDS011;28673;44.412;11.918;2024-01-06T07:32:47;12.30;;;7.97;;
43048;SDS011;28673;44.412;11.918;2024-01-06T07:35:14;11.05;;;7.75;;
43048;SDS011;28673;44.412;11.918;2024-01-06T07:37:41;12.25;;;7.90;;
43048;SDS011;28673;44.412;11.918;2024-01-06T07:40:07;13.70;;;7.80;;
43048;SDS011;28673;44.412;11.918;2024-01-06T07:42:33;12.55;;;8.00;;
43048;SDS011;28673;44.412;11.918;2024-01-06T07:44:59;10.40;;;7.30;;
43048;SDS011;28673;44.412;11.918;2024-01-06T07:47:25;11.05;;;7.15;;
43048;SDS011;28673;44.412;11.918;2024-01-06T07:49:50;9.50;;;7.57;;
43048;SDS011;28673;44.412;11.918;2024-01-06T07:52:18;14.43;;;8.30;;
43048;SDS011;28673;44.412;11.918;2024-01-06T07:54:43;10.43;;;6.82;;
43048;SDS011;28673;44.412;11.918;2024-01-06T07:57:09;10.13;;;7.38;;
43048;SDS011;28673;44.412;11.918;2024-01-06T07:59:36;11.20;;;7.70;;
43048;SDS011;28673;44.412;11.918;2024-01-06T08:02:02;12.65;;;7.57;;
43048;SDS011;28673;44.412;11.918;2024-01-06T08:04:28;10.90;;;7.75;;
43048;SDS011;28673;44.412;11.918;2024-01-06T08:06:53;10.40;;;7.60;;
43048;SDS011;28673;44.412;11.918;2024-01-06T08:09:19;11.23;;;7.65;;
43048;SDS011;28673;44.412;11.918;2024-01-06T08:11:45;11.40;;;7.28;;
43048;SDS011;28673;44.412;11.918;2024-01-06T08:14:13;14.68;;;8.95;;
43048;SDS011;28673;44.412;11.918;2024-01-06T08:16:39;11.98;;;8.30;;
43048;SDS011;28673;44.412;11.918;2024-01-06T08:19:05;11.75;;;7.47;;
43048;SDS011;28673;44.412;11.918;2024-01-06T08:21:30;8.95;;;6.07;;
43048;SDS011;28673;44.412;11.918;2024-01-06T08:23:56;11.73;;;7.57;;
43048;SDS011;28673;44.412;11.918;2024-01-06T08:26:22;10.80;;;7.32;;
43048;SDS011;28673;44.412;11.918;2024-01-06T08:28:48;10.98;;;8.10;;
43048;SDS011;28673;44.412;11.918;2024-01-06T08:31:13;11.50;;;7.63;;
43048;SDS011;28673;44.412;11.918;2024-01-06T08:33:40;11.93;;;7.93;;
43048;SDS011;28673;44.412;11.918;2024-01-06T08:36:05;12.90;;;8.00;;
43048;SDS011;28673;44.412;11.918;2024-01-06T08:38:32;11.07;;;7.43;;
43048;SDS011;28673;44.412;11.918;2024-01-06T08:40:57;13.45;;;7.90;;
43048;SDS011;28673;44.412;11.918;2024-01-06T08:43:23;11.32;;;7.88;;
43048;SDS011;28673;44.412;11.918;2024-01-06T08:45:49;12.93;;;7.22;;
43048;SDS011;28673;44.412;11.918;2024-01-06T08:48:16;15.52;;;7.93;;
43048;SDS011;28673;44.412;11.918;2024-01-06T08:50:43;11.35;;;7.18;;
43048;SDS011;28673;44.412;11.918;2024-01-06T08:53:11;11.18;;;7.47;;
43048;SDS011;28673;44.412;11.918;2024-01-06T08:55:36;12.40;;;7.88;;
43048;SDS011;28673;44.412;11.918;2024-01-06T08:58:02;12.38;;;8.57;;
43048;SDS011;28673;44.412;11.918;2024-01-06T09:00:28;11.18;;;7.70;;
43048;SDS011;28673;44.412;11.918;2024-01-06T09:02:54;12.68;;;7.65;;
43048;SDS011;28673;44.412;11.918;2024-01-06T09:05:20;13.27;;;6.88;;
43048;SDS011;28673;44.412;11.918;2024-01-06T09:07:46;11.23;;;7.32;;
43048;SDS011;28673;44.412;11.918;2024-01-06T09:10:16;17.80;;;7.82;;
43048;SDS011;28673;44.412;11.918;2024-01-06T09:12:42;12.77;;;7.43;;
43048;SDS011;28673;44.412;11.918;2024-01-06T09:15:08;11.10;;;6.88;;
43048;SDS011;28673;44.412;11.918;2024-01-06T09:17:34;12.18;;;7.68;;
43048;SDS011;28673;44.412;11.918;2024-01-06T09:20:00;11.27;;;7.43;;
43048;SDS011;28673;44.412;11.918;2024-01-06T09:22:27;9.18;;;6.05;;
43048;SDS011;28673;44.412;11.918;2024-01-06T09:24:52;11.80;;;7.30;;
43048;SDS011;28673;44.412;11.918;2024-01-06T09:27:20;14.32;;;7.43;;
43048;SDS011;28673;44.412;11.918;2024-01-06T09:29:46;11.60;;;7.20;;
43048;SDS011;28673;44.412;11.918;2024-01-06T09:32:12;10.07;;;6.68;;
43048;SDS011;28673;44.412;11.918;2024-01-06T09:34:38;14.90;;;7.00;;
43048;SDS011;28673;44.412;11.918;2024-01-06T09:37:04;12.90;;;6.88;;
43048;SDS011;28673;44.412;11.918;2024-01-06T09:39:30;12.82;;;6.93;;
43048;SDS011;28673;44.412;11.918;2024-01-06T09:41:57;10.75;;;7.20;;
43048;SDS011;28673;44.412;11.918;2024-01-06T09:44:23;10.57;;;7.28;;
43048;SDS011;28673;44.412;11.918;2024-01-06T09:46:49;12.13;;;6.95;;
43048;SDS011;28673;44.412;11.918;2024-01-06T09:49:20;12.70;;;6.85;;
43048;SDS011;28673;44.412;11.918;2024-01-06T09:51:49;11.85;;;7.28;;
43048;SDS011;28673;44.412;11.918;2024-01-06T09:54:19;9.75;;;6.50;;
43048;SDS011;28673;44.412;11.918;2024-01-06T09:56:49;10.57;;;7.22;;
43048;SDS011;28673;44.412;11.918;2024-01-06T09:59:15;12.95;;;8.00;;
43048;SDS011;28673;44.412;11.918;2024-01-06T10:01:41;9.77;;;6.78;;
43048;SDS011;28673;44.412;11.918;2024-01-06T10:04:07;10.00;;;6.78;;
43048;SDS011;28673;44.412;11.918;2024-01-06T10:06:33;11.35;;;6.90;;
43048;SDS011;28673;44.412;11.918;2024-01-06T10:08:59;10.30;;;6.45;;
43048;SDS011;28673;44.412;11.918;2024-01-06T10:11:25;10.50;;;6.70;;
43048;SDS011;28673;44.412;11.918;2024-01-06T10:13:51;14.18;;;6.57;;
43048;SDS011;28673;44.412;11.918;2024-01-06T10:16:19;11.68;;;6.90;;
43048;SDS011;28673;44.412;11.918;2024-01-06T10:18:45;15.32;;;7.40;;
43048;SDS011;28673;44.412;11.918;2024-01-06T10:21:11;17.40;;;7.65;;
43048;SDS011;28673;44.412;11.918;2024-01-06T10:23:39;11.13;;;7.70;;
43048;SDS011;28673;44.412;11.918;2024-01-06T10:26:05;11.63;;;7.85;;
43048;SDS011;28673;44.412;11.918;2024-01-06T10:28:30;10.90;;;7.43;;
43048;SDS011;28673;44.412;11.918;2024-01-06T10:30:57;12.60;;;7.57;;
43048;SDS011;28673;44.412;11.918;2024-01-06T10:33:24;13.00;;;7.13;;
43048;SDS011;28673;44.412;11.918;2024-01-06T10:35:51;10.73;;;7.45;;
43048;SDS011;28673;44.412;11.918;2024-01-06T10:38:19;13.65;;;8.07;;
43048;SDS011;28673;44.412;11.918;2024-01-06T10:41:00;12.68;;;7.30;;
43048;SDS011;28673;44.412;11.918;2024-01-06T10:43:32;12.02;;;7.55;;
43048;SDS011;28673;44.412;11.918;2024-01-06T10:46:05;15.93;;;8.70;;
43048;SDS011;28673;44.412;11.918;2024-01-06T10:48:35;12.38;;;7.30;;
43048;SDS011;28673;44.412;11.918;2024-01-06T10:51:09;12.10;;;7.10;;
43048;SDS011;28673;44.412;11.918;2024-01-06T10:53:35;11.63;;;7.22;;
43048;SDS011;28673;44.412;11.918;2024-01-06T10:56:05;12.82;;;8.30;;
43048;SDS011;28673;44.412;11.918;2024-01-06T10:58:39;18.20;;;10.20;;
43048;SDS011;28673;44.412;11.918;2024-01-06T11:01:12;13.43;;;8.07;;
43048;SDS011;28673;44.412;11.918;2024-01-06T11:03:38;14.90;;;8.55;;
43048;SDS011;28673;44.412;11.918;2024-01-06T11:06:08;14.00;;;9.07;;
43048;SDS011;28673;44.412;11.918;2024-01-06T11:08:40;16.35;;;8.70;;
43048;SDS011;28673;44.412;11.918;2024-01-06T11:11:17;17.83;;;8.35;;
43048;SDS011;28673;44.412;11.918;2024-01-06T11:13:45;16.42;;;7.97;;
43048;SDS011;28673;44.412;11.918;2024-01-06T11:16:33;21.35;;;8.48;;
43048;SDS011;28673;44.412;11.918;2024-01-06T11:19:00;11.98;;;8.27;;
43048;SDS011;28673;44.412;11.918;2024-01-06T11:21:26;14.57;;;9.35;;
43048;SDS011;28673;44.412;11.918;2024-01-06T11:26:45;15.90;;;8.55;;
43048;SDS011;28673;44.412;11.918;2024-01-06T11:29:15;14.20;;;8.20;;
43048;SDS011;28673;44.412;11.918;2024-01-06T11:31:41;16.80;;;8.70;;
43048;SDS011;28673;44.412;11.918;2024-01-06T11:34:15;14.63;;;8.00;;
43048;SDS011;28673;44.412;11.918;2024-01-06T11:36:50;14.43;;;8.30;;
43048;SDS011;28673;44.412;11.918;2024-01-06T11:39:33;16.88;;;9.32;;
43048;SDS011;28673;44.412;11.918;2024-01-06T11:42:00;14.75;;;9.40;;
43048;SDS011;28673;44.412;11.918;2024-01-06T11:44:27;18.00;;;9.18;;
43048;SDS011;28673;44.412;11.918;2024-01-06T11:46:58;20.08;;;9.00;;
43048;SDS011;28673;44.412;11.918;2024-01-06T11:49:27;11.82;;;8.27;;
43048;SDS011;28673;44.412;11.918;2024-01-06T11:51:57;15.25;;;7.65;;
43048;SDS011;28673;44.412;11.918;2024-01-06T11:54:23;16.90;;;8.05;;
43048;SDS011;28673;44.412;11.918;2024-01-06T11:56:49;20.77;;;8.27;;
43048;SDS011;28673;44.412;11.918;2024-01-06T11:59:18;11.25;;;7.55;;
43048;SDS011;28673;44.412;11.918;2024-01-06T12:01:45;11.68;;;7.07;;
43048;SDS011;28673;44.412;11.918;2024-01-06T12:04:13;16.27;;;8.13;;
43048;SDS011;28673;44.412;11.918;2024-01-06T12:06:40;12.50;;;7.13;;
43048;SDS011;28673;44.412;11.918;2024-01-06T12:09:08;12.52;;;7.25;;
43048;SDS011;28673;44.412;11.918;2024-01-06T12:11:36;11.52;;;6.90;;
43048;SDS011;28673;44.412;11.918;2024-01-06T12:14:04;9.77;;;6.85;;
43048;SDS011;28673;44.412;11.918;2024-01-06T12:16:31;11.18;;;7.20;;
43048;SDS011;28673;44.412;11.918;2024-01-06T12:18:58;9.10;;;6.55;;
43048;SDS011;28673;44.412;11.918;2024-01-06T12:21:29;11.00;;;7.75;;
43048;SDS011;28673;44.412;11.918;2024-01-06T12:24:12;8.07;;;6.18;;
43048;SDS011;28673;44.412;11.918;2024-01-06T12:26:46;12.23;;;6.25;;
43048;SDS011;28673;44.412;11.918;2024-01-06T12:29:12;9.13;;;6.00;;
43048;SDS011;28673;44.412;11.918;2024-01-06T12:31:38;13.65;;;5.88;;
43048;SDS011;28673;44.412;11.918;2024-01-06T12:34:05;9.18;;;6.65;;
43048;SDS011;28673;44.412;11.918;2024-01-06T12:36:37;10.40;;;5.85;;
43048;SDS011;28673;44.412;11.918;2024-01-06T12:39:03;10.88;;;6.22;;
43048;SDS011;28673;44.412;11.918;2024-01-06T12:41:29;11.25;;;6.57;;
43048;SDS011;28673;44.412;11.918;2024-01-06T12:43:58;11.13;;;6.38;;
43048;SDS011;28673;44.412;11.918;2024-01-06T12:46:26;7.70;;;6.05;;
43048;SDS011;28673;44.412;11.918;2024-01-06T12:48:52;9.23;;;6.28;;
43048;SDS011;28673;44.412;11.918;2024-01-06T12:51:18;7.75;;;5.45;;
43048;SDS011;28673;44.412;11.918;2024-01-06T12:53:44;7.80;;;5.97;;
43048;SDS011;28673;44.412;11.918;2024-01-06T12:56:09;9.45;;;5.97;;
43048;SDS011;28673;44.412;11.918;2024-01-06T12:58:35;9.20;;;6.07;;
43048;SDS011;28673;44.412;11.918;2024-01-06T13:01:01;9.55;;;6.53;;
43048;SDS011;28673;44.412;11.918;2024-01-06T13:03:27;10.23;;;6.07;;
43048;SDS011;28673;44.412;11.918;2024-01-06T13:05:54;11.23;;;6.50;;
43048;SDS011;28673;44.412;11.918;2024-01-06T13:08:20;9.85;;;5.85;;
43048;SDS011;28673;44.412;11.918;2024-01-06T13:10:46;8.98;;;5.88;;
43048;SDS011;28673;44.412;11.918;2024-01-06T13:13:12;9.88;;;5.95;;
43048;SDS011;28673;44.412;11.918;2024-01-06T13:15:37;9.68;;;5.72;;
43048;SDS011;28673;44.412;11.918;2024-01-06T13:18:04;7.93;;;5.60;;
43048;SDS011;28673;44.412;11.918;2024-01-06T13:20:30;7.45;;;4.97;;
43048;SDS011;28673;44.412;11.918;2024-01-06T13:22:55;8.48;;;4.63;;
43048;SDS011;28673;44.412;11.918;2024-01-06T13:25:21;6.03;;;4.43;;
43048;SDS011;28673;44.412;11.918;2024-01-06T13:27:47;6.22;;;4.93;;
43048;SDS011;28673;44.412;11.918;2024-01-06T13:30:15;6.38;;;4.78;;
43048;SDS011;28673;44.412;11.918;2024-01-06T13:32:41;6.70;;;4.88;;
43048;SDS011;28673;44.412;11.918;2024-01-06T13:35:07;8.25;;;4.40;;
43048;SDS011;28673;44.412;11.918;2024-01-06T13:37:35;6.63;;;4.70;;
43048;SDS011;28673;44.412;11.918;2024-01-06T13:40:01;7.15;;;4.93;;
43048;SDS011;28673;44.412;11.918;2024-01-06T13:42:28;8.13;;;4.63;;
43048;SDS011;28673;44.412;11.918;2024-01-06T13:44:54;6.88;;;4.60;;
43048;SDS011;28673;44.412;11.918;2024-01-06T13:47:19;5.78;;;4.10;;
43048;SDS011;28673;44.412;11.918;2024-01-06T13:49:45;6.18;;;4.30;;
43048;SDS011;28673;44.412;11.918;2024-01-06T13:52:11;6.40;;;4.30;;
43048;SDS011;28673;44.412;11.918;2024-01-06T13:54:37;6.05;;;4.15;;
43048;SDS011;28673;44.412;11.918;2024-01-06T13:57:03;6.28;;;4.32;;
43048;SDS011;28673;44.412;11.918;2024-01-06T13:59:29;6.63;;;4.80;;
43048;SDS011;28673;44.412;11.918;2024-01-06T14:01:55;6.35;;;4.53;;
43048;SDS011;28673;44.412;11.918;2024-01-06T14:04:21;5.88;;;4.00;;
43048;SDS011;28673;44.412;11.918;2024-01-06T14:06:48;5.78;;;3.95;;
43048;SDS011;28673;44.412;11.918;2024-01-06T14:09:20;7.78;;;5.03;;
43048;SDS011;28673;44.412;11.918;2024-01-06T14:11:47;7.15;;;4.88;;
43048;SDS011;28673;44.412;11.918;2024-01-06T14:14:12;7.43;;;4.68;;
43048;SDS011;28673;44.412;11.918;2024-01-06T14:16:38;7.38;;;4.72;;
43048;SDS011;28673;44.412;11.918;2024-01-06T14:19:04;15.65;;;6.57;;